Time;durP1;ratioP1;P1;durP2;ratioP2;P2;SDS_P1;SDS_P2;PMS_P1;PMS_P2;Temp;Humidity;BMP_temperature;BMP_pressure;BME280_temperature;BME280_humidity;BME280_pressure;Samples;Min_cycle;Max_cycle;Signal;HPM_P1;HPM_P2
2022/11/14 00:00:39;;;;;;;1.10;1.10;;;6.20;99.90;;;;;;5023498;28;20487;-83
2022/11/14 00:03:10;;;;;;;1.13;1.13;;;6.20;99.90;;;;;;5025100;28;20037;-82
2022/11/14 00:05:41;;;;;;;0.80;0.80;;;6.20;99.90;;;;;;5021404;28;21294;-82
2022/11/14 00:08:15;;;;;;;0.70;0.70;;;6.50;99.90;;;;;;5018224;28;20048;-82
2022/11/14 00:10:48;;;;;;;0.60;0.60;;;6.30;99.90;;;;;;5018796;28;20048;-83
2022/11/14 00:13:19;;;;;;;0.80;0.80;;;6.30;99.90;;;;;;5021385;28;20049;-82
2022/11/14 00:15:49;;;;;;;0.60;0.60;;;6.30;99.90;;;;;;5025903;28;20052;-82
2022/11/14 00:18:15;;;;;;;0.52;0.52;;;6.30;99.90;;;;;;5020939;28;20053;-82
2022/11/14 00:20:41;;;;;;;0.50;0.50;;;6.30;99.90;;;;;;5018940;28;20041;-82
2022/11/14 00:23:07;;;;;;;;;;;6.30;99.90;;;;;;5020398;28;20053;-82
2022/11/14 00:25:33;;;;;;;0.70;0.70;;;6.30;99.90;;;;;;5025952;28;19951;-83
2022/11/14 00:27:58;;;;;;;0.90;0.85;;;6.40;99.90;;;;;;5021830;28;20122;-79
2022/11/14 00:30:25;;;;;;;0.50;0.50;;;6.40;99.90;;;;;;4990963;28;20120;-82
2022/11/14 00:32:50;;;;;;;1.02;0.80;;;6.40;99.90;;;;;;5023837;28;20034;-83
2022/11/14 00:35:18;;;;;;;0.57;0.57;;;6.40;99.90;;;;;;5024755;28;20509;-81
2022/11/14 00:37:44;;;;;;;0.60;0.60;;;6.50;99.90;;;;;;5022860;28;20089;-81
2022/11/14 00:40:15;;;;;;;0.50;0.50;;;6.40;99.90;;;;;;5025904;28;20123;-79
2022/11/14 00:42:41;;;;;;;0.40;0.40;;;6.40;99.90;;;;;;5026907;28;20467;-80
2022/11/14 00:45:08;;;;;;;1.40;1.40;;;6.40;99.90;;;;;;5005181;28;20116;-82
2022/11/14 00:47:33;;;;;;;1.27;1.20;;;6.40;99.90;;;;;;5006107;28;20128;-82
2022/11/14 00:49:59;;;;;;;0.60;0.60;;;6.40;99.90;;;;;;5003037;28;20102;-81
2022/11/14 00:52:25;;;;;;;0.50;0.50;;;6.50;99.90;;;;;;5023940;28;20407;-81
2022/11/14 00:54:50;;;;;;;0.82;0.82;;;6.50;99.90;;;;;;5010438;28;20048;-81
2022/11/14 00:57:19;;;;;;;0.50;0.50;;;6.50;99.90;;;;;;5022991;28;20074;-82
2022/11/14 00:59:45;;;;;;;0.73;0.73;;;6.50;99.90;;;;;;5036422;28;20408;-82
2022/11/14 01:02:10;;;;;;;0.57;0.57;;;6.50;99.90;;;;;;5003111;28;20037;-81
2022/11/14 01:04:36;;;;;;;0.52;0.52;;;6.50;99.90;;;;;;5024157;28;20061;-82
2022/11/14 01:07:02;;;;;;;0.60;0.60;;;6.50;99.90;;;;;;5021777;28;20079;-81
2022/11/14 01:09:29;;;;;;;0.57;0.57;;;6.50;99.90;;;;;;5018882;28;20045;-82
2022/11/14 01:11:55;;;;;;;1.58;1.50;;;6.50;99.90;;;;;;5004818;28;20048;-81
2022/11/14 01:14:20;;;;;;;1.42;1.17;;;6.50;99.90;;;;;;5024099;28;20038;-81
2022/11/14 01:16:46;;;;;;;0.50;0.50;;;6.50;99.90;;;;;;5022939;28;20045;-82
2022/11/14 01:19:12;;;;;;;0.60;0.60;;;6.40;99.90;;;;;;5003024;28;20116;-81
2022/11/14 01:21:37;;;;;;;0.70;0.70;;;6.40;99.90;;;;;;5021500;28;20034;-80
2022/11/14 01:24:03;;;;;;;0.75;0.75;;;6.50;99.90;;;;;;5005622;28;20772;-82
2022/11/14 01:26:35;;;;;;;0.50;0.50;;;6.40;99.90;;;;;;5004454;28;20119;-81
2022/11/14 01:29:00;;;;;;;0.60;0.60;;;6.40;99.90;;;;;;5016543;28;20480;-81
2022/11/14 01:31:26;;;;;;;0.60;0.60;;;6.80;99.90;;;;;;5021299;28;20051;-82
2022/11/14 01:33:53;;;;;;;1.60;1.50;;;6.40;99.90;;;;;;5024498;28;20049;-81
2022/11/14 01:36:19;;;;;;;0.50;0.50;;;6.20;99.90;;;;;;5025448;28;20068;-81
2022/11/14 01:38:45;;;;;;;0.63;0.63;;;6.30;99.90;;;;;;5024094;28;20187;-82
2022/11/14 01:41:15;;;;;;;0.70;0.70;;;6.30;99.90;;;;;;4992791;28;20049;-82
2022/11/14 01:43:41;;;;;;;0.60;0.60;;;6.30;99.90;;;;;;5021431;28;20057;-81
2022/11/14 01:46:29;;;;;;;0.90;0.90;;;6.80;99.90;;;;;;5002256;28;20045;-81
2022/11/14 01:49:25;;;;;;;0.57;0.57;;;6.30;99.90;;;;;;5018239;28;20040;-80
2022/11/14 01:52:02;;;;;;;0.70;0.70;;;6.20;99.90;;;;;;5016046;28;20585;-83
2022/11/14 01:54:33;;;;;;;0.85;0.85;;;6.20;99.90;;;;;;5011925;28;20041;-83
2022/11/14 01:57:01;;;;;;;1.55;1.45;;;6.10;99.90;;;;;;5012328;28;20050;-83
2022/11/14 01:59:35;;;;;;;1.73;1.65;;;6.10;99.90;;;;;;5015857;28;20054;-81
2022/11/14 02:02:15;;;;;;;1.05;1.05;;;6.10;99.90;;;;;;5032624;28;20044;-82
2022/11/14 02:04:47;;;;;;;0.40;0.40;;;6.10;99.90;;;;;;5030494;28;20045;-81
2022/11/14 02:07:14;;;;;;;1.20;1.20;;;6.10;99.90;;;;;;5008850;28;20854;-80
2022/11/14 02:09:44;;;;;;;0.60;0.60;;;6.10;99.90;;;;;;4994224;28;20099;-81
2022/11/14 02:12:13;;;;;;;0.77;0.77;;;6.40;99.90;;;;;;5013697;28;20038;-82
2022/11/14 02:14:40;;;;;;;1.30;1.20;;;6.10;99.90;;;;;;5014177;28;20041;-81
2022/11/14 02:17:06;;;;;;;1.60;1.58;;;6.10;99.90;;;;;;5014306;28;20076;-80
2022/11/14 02:19:52;;;;;;;0.77;0.77;;;6.10;99.90;;;;;;4998116;28;20380;-82
2022/11/14 02:22:18;;;;;;;0.50;0.50;;;6.10;99.90;;;;;;5010711;28;20038;-82
2022/11/14 02:24:44;;;;;;;1.38;1.20;;;6.10;99.90;;;;;;5013139;28;20061;-81
2022/11/14 02:27:11;;;;;;;;;;;6.10;99.90;;;;;;5015200;28;20041;-82
2022/11/14 02:29:37;;;;;;;0.57;0.57;;;6.10;99.90;;;;;;5013000;28;19925;-82
2022/11/14 02:32:06;;;;;;;0.50;0.50;;;6.10;99.90;;;;;;5015040;28;20426;-80
2022/11/14 02:34:39;;;;;;;0.68;0.65;;;6.40;99.90;;;;;;5015826;28;20090;-81
2022/11/14 02:37:10;;;;;;;0.77;0.77;;;6.10;99.90;;;;;;5013401;28;20115;-80
2022/11/14 02:39:36;;;;;;;0.50;0.50;;;6.10;99.90;;;;;;4997507;28;20045;-80
2022/11/14 02:42:03;;;;;;;0.70;0.70;;;6.00;99.90;;;;;;5015057;28;20048;-82
2022/11/14 02:44:29;;;;;;;0.80;0.80;;;6.10;99.90;;;;;;5013299;28;20103;-81
2022/11/14 02:46:55;;;;;;;1.13;1.13;;;6.10;99.90;;;;;;4997891;28;20046;-82
2022/11/14 02:49:20;;;;;;;1.02;1.02;;;6.30;99.90;;;;;;5019190;28;20041;-81
2022/11/14 02:51:46;;;;;;;0.57;0.57;;;6.00;99.90;;;;;;4999614;28;20042;-81
2022/11/14 02:54:12;;;;;;;0.50;0.50;;;6.10;99.90;;;;;;5003922;28;20037;-81
2022/11/14 02:56:38;;;;;;;0.50;0.50;;;6.10;99.90;;;;;;5025896;28;20045;-81
2022/11/14 02:59:04;;;;;;;1.05;0.60;;;6.10;99.90;;;;;;5026011;28;20072;-81
2022/11/14 03:01:30;;;;;;;1.42;1.42;;;6.10;99.90;;;;;;4991512;28;20056;-82
2022/11/14 03:03:56;;;;;;;0.68;0.68;;;6.10;99.90;;;;;;4996453;28;20041;-81
2022/11/14 03:06:21;;;;;;;5.18;1.15;;;6.20;99.90;;;;;;5026506;28;20168;-80
2022/11/14 03:08:47;;;;;;;1.52;1.20;;;6.20;99.90;;;;;;5011175;28;20057;-84
2022/11/14 03:11:13;;;;;;;0.77;0.77;;;6.50;99.90;;;;;;5010215;28;20126;-82
2022/11/14 03:13:38;;;;;;;0.82;0.82;;;6.30;99.90;;;;;;5027068;28;20036;-82
2022/11/14 03:16:09;;;;;;;0.50;0.50;;;6.30;99.90;;;;;;5025027;28;20098;-81
2022/11/14 03:18:35;;;;;;;1.98;1.88;;;6.30;99.90;;;;;;5007914;28;20067;-81
2022/11/14 03:21:09;;;;;;;0.43;0.43;;;6.40;99.90;;;;;;5008207;28;20037;-82
2022/11/14 03:23:35;;;;;;;0.63;0.63;;;6.50;99.90;;;;;;5025425;28;20041;-83
2022/11/14 03:26:04;;;;;;;0.60;0.60;;;6.40;99.90;;;;;;5023988;28;20041;-81
2022/11/14 03:28:34;;;;;;;0.60;0.60;;;6.40;99.90;;;;;;5024827;28;20120;-82
2022/11/14 03:31:00;;;;;;;2.47;2.28;;;6.40;99.90;;;;;;5006936;28;20430;-82
2022/11/14 03:33:26;;;;;;;0.50;0.50;;;6.40;99.90;;;;;;5024664;28;20107;-82
2022/11/14 03:35:52;;;;;;;0.50;0.50;;;6.40;99.90;;;;;;5023823;28;20049;-81
2022/11/14 03:38:21;;;;;;;0.60;0.60;;;6.50;99.90;;;;;;5008690;28;20041;-81
2022/11/14 03:40:48;;;;;;;0.57;0.57;;;6.60;99.90;;;;;;5006442;28;20045;-82
2022/11/14 03:43:15;;;;;;;0.63;0.63;;;6.50;99.90;;;;;;5024775;28;20099;-83
2022/11/14 03:45:41;;;;;;;0.70;0.70;;;6.40;99.90;;;;;;5039300;28;20060;-83
2022/11/14 03:48:07;;;;;;;0.50;0.50;;;6.50;99.90;;;;;;5008827;28;20041;-82
2022/11/14 03:50:33;;;;;;;0.80;0.80;;;6.50;99.90;;;;;;5025892;28;20073;-81
2022/11/14 03:52:58;;;;;;;2.38;1.40;;;6.50;99.90;;;;;;4989161;28;20096;-81
2022/11/14 03:55:30;;;;;;;0.90;0.90;;;6.50;99.90;;;;;;5020814;28;20498;-82
2022/11/14 03:57:56;;;;;;;1.02;1.02;;;6.50;99.90;;;;;;5019634;28;20045;-81
2022/11/14 04:00:21;;;;;;;0.68;0.68;;;6.50;99.90;;;;;;5002169;28;20113;-80
2022/11/14 04:02:47;;;;;;;0.38;0.38;;;6.50;99.90;;;;;;5024459;28;20045;-82
2022/11/14 04:05:18;;;;;;;0.50;0.50;;;6.50;99.90;;;;;;5022469;28;20049;-83
2022/11/14 04:07:44;;;;;;;1.20;1.15;;;6.40;99.90;;;;;;5024634;28;20067;-81
2022/11/14 04:10:10;;;;;;;0.88;0.88;;;6.50;99.90;;;;;;5024425;28;20045;-82
2022/11/14 04:12:35;;;;;;;1.23;1.20;;;6.50;99.90;;;;;;5008411;28;20033;-81
2022/11/14 04:15:01;;;;;;;0.68;0.68;;;6.50;99.90;;;;;;5026818;28;20099;-81
2022/11/14 04:17:27;;;;;;;0.77;0.77;;;6.50;99.90;;;;;;5007040;28;20041;-81
2022/11/14 04:19:52;;;;;;;0.85;0.85;;;6.50;99.90;;;;;;5022858;28;20060;-81
2022/11/14 04:22:18;;;;;;;1.17;0.88;;;6.40;99.90;;;;;;5004925;28;20045;-83
2022/11/14 04:24:44;;;;;;;0.60;0.60;;;6.50;99.90;;;;;;5020275;28;20119;-82
2022/11/14 04:27:10;;;;;;;0.50;0.50;;;6.90;99.90;;;;;;5021902;28;20045;-82
2022/11/14 04:29:36;;;;;;;1.77;1.67;;;6.40;99.90;;;;;;5024886;28;20044;-82
2022/11/14 04:32:02;;;;;;;1.02;0.95;;;6.40;99.90;;;;;;5022511;28;20060;-82
2022/11/14 04:34:33;;;;;;;0.50;0.50;;;6.40;99.90;;;;;;5023265;28;20063;-82
2022/11/14 04:37:01;;;;;;;1.85;1.73;;;6.40;99.90;;;;;;5020425;28;20056;-83
2022/11/14 04:39:32;;;;;;;1.55;1.05;;;6.40;99.90;;;;;;5019996;28;20114;-80
2022/11/14 04:41:58;;;;;;;0.70;0.70;;;6.40;99.90;;;;;;5007674;28;20509;-80
2022/11/14 04:44:24;;;;;;;1.60;0.77;;;6.40;99.90;;;;;;5007379;28;20041;-81
2022/11/14 04:46:54;;;;;;;0.40;0.40;;;6.40;99.90;;;;;;5023293;28;21367;-81
2022/11/14 04:49:20;;;;;;;2.38;1.92;;;6.40;99.90;;;;;;5024101;28;20063;-80
2022/11/14 04:51:45;;;;;;;0.93;0.93;;;6.40;99.90;;;;;;5022591;28;20037;-82
2022/11/14 04:54:14;;;;;;;0.63;0.63;;;6.40;99.90;;;;;;5022657;28;20084;-82
2022/11/14 04:56:40;;;;;;;0.57;0.57;;;6.20;99.90;;;;;;5017334;28;20069;-81
2022/11/14 04:59:07;;;;;;;0.60;0.60;;;6.40;99.90;;;;;;5019525;28;20045;-82
2022/11/14 05:01:34;;;;;;;0.55;0.55;;;6.40;99.90;;;;;;5021471;28;20037;-82
2022/11/14 05:03:59;;;;;;;0.77;0.77;;;6.40;99.90;;;;;;5006793;28;20041;-82
2022/11/14 05:06:25;;;;;;;0.63;0.63;;;6.30;99.90;;;;;;5021316;28;20056;-81
2022/11/14 05:08:51;;;;;;;0.50;0.50;;;6.30;99.90;;;;;;5003961;28;20052;-82
2022/11/14 05:11:18;;;;;;;0.77;0.77;;;6.40;99.90;;;;;;5022039;28;20037;-80
2022/11/14 05:13:45;;;;;;;1.48;0.73;;;6.40;99.90;;;;;;5016669;28;20376;-80
2022/11/14 05:16:12;;;;;;;;;;;6.30;99.90;;;;;;5020138;28;20070;-80
2022/11/14 05:18:38;;;;;;;0.57;0.57;;;6.30;99.90;;;;;;5020834;28;19986;-80
2022/11/14 05:21:04;;;;;;;;;;;6.30;99.90;;;;;;5020772;28;20659;-82
2022/11/14 05:23:30;;;;;;;1.45;1.45;;;6.20;99.90;;;;;;5023879;28;19925;-82
2022/11/14 05:26:02;;;;;;;1.08;0.75;;;6.30;99.90;;;;;;5022122;28;20415;-80
2022/11/14 05:28:37;;;;;;;0.70;0.70;;;6.60;99.90;;;;;;5024651;28;20076;-82
2022/11/14 05:31:08;;;;;;;2.20;1.20;;;6.20;99.90;;;;;;5009174;28;20581;-81
2022/11/14 05:33:34;;;;;;;1.10;1.02;;;6.30;99.90;;;;;;5019248;28;20092;-81
2022/11/14 05:36:03;;;;;;;;;;;6.40;99.90;;;;;;5019217;28;20049;-81
2022/11/14 05:38:30;;;;;;;0.50;0.50;;;6.20;99.90;;;;;;5020004;28;19948;-81
2022/11/14 05:41:04;;;;;;;0.50;0.50;;;6.20;99.90;;;;;;5001728;28;20046;-81
2022/11/14 05:43:29;;;;;;;1.15;1.02;;;6.50;99.90;;;;;;5018859;28;20053;-80
2022/11/14 05:45:59;;;;;;;0.60;0.60;;;6.20;99.90;;;;;;5003295;28;20395;-81
2022/11/14 05:48:25;;;;;;;2.25;2.15;;;6.10;99.90;;;;;;5025446;28;20083;-80
2022/11/14 05:50:59;;;;;;;0.93;0.93;;;6.10;99.90;;;;;;5026758;28;20152;-81
2022/11/14 05:53:26;;;;;;;0.60;0.60;;;6.10;99.90;;;;;;5007732;28;20364;-81
2022/11/14 05:55:54;;;;;;;1.77;1.70;;;6.10;99.90;;;;;;5021859;28;20049;-81
2022/11/14 05:58:20;;;;;;;0.50;0.50;;;6.10;99.90;;;;;;5021970;28;20045;-82
2022/11/14 06:00:48;;;;;;;0.98;0.98;;;6.10;99.90;;;;;;5020155;28;20107;-79
2022/11/14 06:03:15;;;;;;;0.88;0.88;;;6.10;99.90;;;;;;5039716;28;20457;-81
2022/11/14 06:05:41;;;;;;;0.70;0.70;;;6.30;99.90;;;;;;5019830;28;20061;-81
2022/11/14 06:08:07;;;;;;;0.50;0.50;;;6.10;99.90;;;;;;5004429;28;20379;-81
2022/11/14 06:10:36;;;;;;;1.63;1.52;;;6.20;99.90;;;;;;5019075;28;20135;-81
2022/11/14 06:13:01;;;;;;;0.57;0.57;;;6.20;99.90;;;;;;5020842;28;20073;-82
2022/11/14 06:15:27;;;;;;;0.70;0.70;;;6.30;99.90;;;;;;5017513;28;20144;-82
2022/11/14 06:17:54;;;;;;;0.90;0.90;;;6.00;99.90;;;;;;5024237;28;20079;-81
2022/11/14 06:20:20;;;;;;;0.70;0.70;;;6.00;99.90;;;;;;5019808;28;20037;-83
2022/11/14 06:22:45;;;;;;;0.57;0.57;;;5.90;99.90;;;;;;5020534;28;20037;-83
2022/11/14 06:25:14;;;;;;;1.58;1.48;;;5.90;99.90;;;;;;5019365;28;20045;-82
2022/11/14 06:27:41;;;;;;;0.52;0.52;;;5.90;99.90;;;;;;5020354;28;20045;-83
2022/11/14 06:30:07;;;;;;;0.70;0.70;;;5.90;99.90;;;;;;5018620;28;20633;-81
2022/11/14 06:32:33;;;;;;;1.45;1.23;;;5.90;99.90;;;;;;5022291;28;20099;-82
2022/11/14 06:35:00;;;;;;;3.78;2.58;;;5.90;99.90;;;;;;5005933;28;20426;-83
2022/11/14 06:37:26;;;;;;;0.70;0.70;;;6.20;99.90;;;;;;5023936;28;20187;-83
2022/11/14 06:39:52;;;;;;;2.28;1.40;;;5.90;99.90;;;;;;5007577;28;20072;-82
2022/11/14 06:42:17;;;;;;;0.63;0.63;;;5.90;99.90;;;;;;5021919;28;20041;-83
2022/11/14 06:44:43;;;;;;;0.70;0.70;;;5.90;99.90;;;;;;5019209;28;20057;-81
2022/11/14 06:47:09;;;;;;;0.75;0.75;;;5.90;99.90;;;;;;5020390;28;20075;-81
2022/11/14 06:49:34;;;;;;;0.93;0.93;;;5.90;99.90;;;;;;5018520;28;20156;-81
2022/11/14 06:52:00;;;;;;;0.90;0.90;;;6.10;99.90;;;;;;5019577;28;20042;-82
2022/11/14 06:54:26;;;;;;;0.93;0.93;;;5.80;99.90;;;;;;5019158;28;20045;-82
2022/11/14 06:56:51;;;;;;;3.85;1.30;;;5.90;99.90;;;;;;5003588;28;20049;-80
2022/11/14 06:59:17;;;;;;;0.85;0.85;;;5.80;99.90;;;;;;5018592;28;20376;-82
2022/11/14 07:01:43;;;;;;;0.68;0.68;;;5.80;99.90;;;;;;5018744;28;20075;-83
2022/11/14 07:04:08;;;;;;;0.95;0.93;;;5.80;99.90;;;;;;5016087;28;20045;-82
2022/11/14 07:06:35;;;;;;;1.58;1.58;;;5.80;99.90;;;;;;5010696;28;20590;-82
2022/11/14 07:09:00;;;;;;;;;;;5.80;99.90;;;;;;5018623;28;20053;-81
2022/11/14 07:11:28;;;;;;;0.57;0.57;;;5.80;99.90;;;;;;5018151;28;19921;-82
2022/11/14 07:13:57;;;;;;;1.42;1.33;;;5.70;99.90;;;;;;5022130;28;20387;-81
2022/11/14 07:16:31;;;;;;;0.50;0.50;;;5.80;99.90;;;;;;5021874;28;20042;-82
2022/11/14 07:18:57;;;;;;;2.90;2.78;;;5.70;99.90;;;;;;5036358;28;20037;-83
2022/11/14 07:21:27;;;;;;;0.63;0.63;;;5.70;99.90;;;;;;5018416;28;20658;-82
2022/11/14 07:23:53;;;;;;;1.25;1.25;;;5.70;99.90;;;;;;5016502;28;20339;-82
2022/11/14 07:26:20;;;;;;;2.17;1.58;;;5.70;99.90;;;;;;5020772;28;20045;-82
2022/11/14 07:28:46;;;;;;;0.50;0.50;;;5.70;99.90;;;;;;5021358;28;20054;-82
2022/11/14 07:31:17;;;;;;;1.23;1.17;;;5.70;99.90;;;;;;5018832;28;20041;-82
2022/11/14 07:33:44;;;;;;;0.60;0.60;;;6.20;99.90;;;;;;5023399;28;20037;-81
2022/11/14 07:36:12;;;;;;;0.60;0.60;;;5.80;99.90;;;;;;5006940;28;20045;-82
2022/11/14 07:38:38;;;;;;;3.05;2.85;;;5.80;99.90;;;;;;4992927;28;20641;-83
2022/11/14 07:41:08;;;;;;;;;;;5.80;99.90;;;;;;5025115;28;20051;-80
2022/11/14 07:43:35;;;;;;;0.55;0.55;;;5.80;99.90;;;;;;5021416;28;20662;-81
2022/11/14 07:46:03;;;;;;;0.52;0.52;;;5.80;99.90;;;;;;5022000;28;20045;-81
2022/11/14 07:48:30;;;;;;;0.80;0.68;;;5.80;99.90;;;;;;5040546;28;20410;-83
2022/11/14 07:51:00;;;;;;;0.60;0.60;;;5.80;99.90;;;;;;5025602;28;20121;-82
2022/11/14 07:53:27;;;;;;;0.70;0.70;;;5.80;99.90;;;;;;5021654;28;20080;-82
2022/11/14 07:55:54;;;;;;;0.70;0.70;;;5.80;99.90;;;;;;5021836;28;20037;-81
2022/11/14 07:58:19;;;;;;;4.78;1.42;;;5.90;99.90;;;;;;5006723;28;20042;-81
2022/11/14 08:00:45;;;;;;;1.42;1.40;;;5.80;99.90;;;;;;5038904;28;20125;-82
2022/11/14 08:03:14;;;;;;;0.80;0.80;;;5.80;99.90;;;;;;5005263;28;20087;-81
2022/11/14 08:05:46;;;;;;;0.98;0.98;;;5.80;99.90;;;;;;5017668;28;20068;-82
2022/11/14 08:08:11;;;;;;;2.05;0.95;;;5.80;99.90;;;;;;5021182;28;20171;-82
2022/11/14 08:10:37;;;;;;;0.60;0.60;;;5.80;99.90;;;;;;5004187;28;20045;-81
2022/11/14 08:13:05;;;;;;;1.05;1.05;;;5.80;99.90;;;;;;5022111;28;20045;-81
2022/11/14 08:15:31;;;;;;;0.82;0.82;;;5.90;99.90;;;;;;5022393;28;20044;-81
2022/11/14 08:17:57;;;;;;;;;;;5.90;99.90;;;;;;5004551;28;20045;-81
2022/11/14 08:20:23;;;;;;;3.08;2.95;;;5.90;99.90;;;;;;5021630;28;20404;-81
2022/11/14 08:22:48;;;;;;;0.50;0.50;;;5.90;99.90;;;;;;5007969;28;20096;-82
2022/11/14 08:25:15;;;;;;;1.38;1.35;;;6.10;99.90;;;;;;5004791;28;20041;-82
2022/11/14 08:27:41;;;;;;;1.13;1.13;;;6.00;99.90;;;;;;5023519;28;20648;-82
2022/11/14 08:30:08;;;;;;;0.60;0.60;;;6.10;99.90;;;;;;5023609;28;20037;-82
2022/11/14 08:32:34;;;;;;;1.05;0.98;;;6.10;99.90;;;;;;5005418;28;20052;-82
2022/11/14 08:34:59;;;;;;;1.10;1.08;;;6.30;99.90;;;;;;5020220;28;20391;-82
2022/11/14 08:37:25;;;;;;;0.70;0.70;;;6.20;99.90;;;;;;4986650;28;20558;-82
2022/11/14 08:39:52;;;;;;;;;;;6.30;99.90;;;;;;5022928;28;20053;-82
2022/11/14 08:42:18;;;;;;;1.50;1.42;;;6.30;99.90;;;;;;5020495;28;19931;-81
2022/11/14 08:44:44;;;;;;;4.65;1.30;;;6.30;99.90;;;;;;5022290;28;20053;-82
2022/11/14 08:47:10;;;;;;;0.50;0.50;;;6.70;99.90;;;;;;5020846;28;20052;-81
2022/11/14 08:49:36;;;;;;;0.70;0.70;;;6.30;99.90;;;;;;4999273;28;20037;-81
2022/11/14 08:52:03;;;;;;;1.13;1.13;;;6.30;99.90;;;;;;5003262;28;20052;-81
2022/11/14 08:54:31;;;;;;;0.60;0.60;;;6.40;99.90;;;;;;5006556;28;20037;-80
2022/11/14 08:56:57;;;;;;;0.82;0.82;;;6.40;99.90;;;;;;5021459;28;20041;-82
2022/11/14 08:59:23;;;;;;;2.53;2.38;;;6.40;99.90;;;;;;5005900;28;20052;-81
2022/11/14 09:01:50;;;;;;;0.82;0.82;;;6.50;99.90;;;;;;5005089;28;20049;-82
2022/11/14 09:04:16;;;;;;;1.30;1.30;;;6.50;99.90;;;;;;5019312;28;21252;-81
2022/11/14 09:06:42;;;;;;;1.50;1.40;;;6.50;99.90;;;;;;5019272;28;20440;-81
2022/11/14 09:09:07;;;;;;;0.70;0.70;;;6.50;99.90;;;;;;4995071;28;20056;-81
2022/11/14 09:11:33;;;;;;;0.70;0.70;;;6.50;99.90;;;;;;5020406;28;20042;-81
2022/11/14 09:14:00;;;;;;;0.60;0.60;;;6.60;99.90;;;;;;5026082;28;20042;-81
2022/11/14 09:16:25;;;;;;;0.60;0.60;;;6.50;99.90;;;;;;5022985;28;20053;-81
2022/11/14 09:18:51;;;;;;;0.57;0.57;;;6.60;99.90;;;;;;5021674;28;20048;-81
2022/11/14 09:21:17;;;;;;;0.63;0.63;;;6.60;99.90;;;;;;5020158;28;20048;-80
2022/11/14 09:23:46;;;;;;;0.90;0.70;;;6.60;99.90;;;;;;5021475;28;20083;-80
2022/11/14 09:26:12;;;;;;;0.55;0.55;;;6.70;99.90;;;;;;5004824;28;20099;-81
2022/11/14 09:28:37;;;;;;;1.00;0.88;;;6.70;99.90;;;;;;5002922;28;20045;-81
2022/11/14 09:31:05;;;;;;;0.93;0.90;;;6.80;99.90;;;;;;5020104;28;20046;-81
2022/11/14 09:33:31;;;;;;;0.40;0.40;;;6.80;99.90;;;;;;5002594;28;20052;-81
2022/11/14 09:36:01;;;;;;;;;;;6.80;99.90;;;;;;5003466;28;20041;-81
2022/11/14 09:38:27;;;;;;;0.63;0.63;;;6.80;99.90;;;;;;5031216;28;19925;-82
2022/11/14 09:41:08;;;;;;;0.60;0.60;;;6.90;99.90;;;;;;5005635;28;20120;-83
2022/11/14 09:43:52;;;;;;;0.60;0.60;;;6.80;99.90;;;;;;5021516;28;20407;-81
2022/11/14 09:46:31;;;;;;;0.50;0.50;;;6.70;99.90;;;;;;5019756;28;20044;-81
2022/11/14 09:48:57;;;;;;;0.70;0.70;;;6.90;99.90;;;;;;5021679;28;20033;-82
2022/11/14 09:51:32;;;;;;;1.70;1.60;;;6.80;99.90;;;;;;4998276;28;20540;-82
2022/11/14 09:54:22;;;;;;;2.67;2.58;;;6.80;99.90;;;;;;5020734;28;20045;-82
2022/11/14 09:56:48;;;;;;;0.95;0.95;;;6.90;99.90;;;;;;5026233;28;20073;-82
2022/11/14 09:59:14;;;;;;;0.50;0.50;;;6.90;99.90;;;;;;5014028;28;20045;-83
2022/11/14 10:01:59;;;;;;;;;;;6.90;99.90;;;;;;5023345;28;20076;-81
2022/11/14 10:04:41;;;;;;;0.50;0.50;;;6.80;99.90;;;;;;5021207;28;19921;-82
2022/11/14 10:07:26;;;;;;;1.13;0.85;;;6.70;99.90;;;;;;5017368;28;20069;-81
2022/11/14 10:10:21;;;;;;;1.92;1.83;;;6.70;99.90;;;;;;5018179;28;20048;-82
2022/11/14 10:13:22;;;;;;;1.05;1.05;;;6.70;99.90;;;;;;5013333;28;21455;-82
2022/11/14 10:16:17;;;;;;;1.35;1.35;;;6.80;99.90;;;;;;5015516;28;20072;-81
2022/11/14 10:18:54;;;;;;;2.60;2.47;;;6.90;99.90;;;;;;5021363;28;20154;-83
2022/11/14 10:21:38;;;;;;;0.65;0.65;;;6.90;99.90;;;;;;5034721;28;20668;-81
2022/11/14 10:24:22;;;;;;;1.02;0.93;;;7.00;99.90;;;;;;5021640;28;20053;-82
2022/11/14 10:27:02;;;;;;;1.70;1.60;;;7.00;99.90;;;;;;5020386;28;20061;-82
2022/11/14 10:29:47;;;;;;;0.60;0.60;;;7.00;99.90;;;;;;5016415;28;20041;-81
2022/11/14 10:32:31;;;;;;;0.60;0.60;;;7.00;99.90;;;;;;5023446;28;20049;-82
2022/11/14 10:35:12;;;;;;;1.38;1.38;;;7.00;99.90;;;;;;5023613;28;20033;-81
2022/11/14 10:37:48;;;;;;;0.80;0.80;;;7.00;99.90;;;;;;5017550;28;20037;-82
2022/11/14 10:40:28;;;;;;;1.23;0.93;;;7.00;99.90;;;;;;5001506;28;20088;-81
2022/11/14 10:43:00;;;;;;;1.10;1.08;;;7.00;99.90;;;;;;5023387;28;20057;-81
2022/11/14 10:45:42;;;;;;;0.80;0.80;;;7.50;99.90;;;;;;5019269;28;20449;-82
2022/11/14 10:48:14;;;;;;;1.90;0.77;;;7.10;99.90;;;;;;5018760;28;20386;-82
2022/11/14 10:50:48;;;;;;;1.25;1.17;;;7.20;99.90;;;;;;5019192;28;20045;-82
2022/11/14 10:53:24;;;;;;;1.42;1.38;;;7.30;99.90;;;;;;5025949;28;20475;-81
2022/11/14 10:55:52;;;;;;;1.65;1.55;;;7.30;99.90;;;;;;5021767;28;20049;-82
2022/11/14 10:58:21;;;;;;;0.60;0.60;;;7.40;99.90;;;;;;5021835;28;20421;-83
2022/11/14 11:00:47;;;;;;;1.48;1.02;;;7.40;99.90;;;;;;5018399;28;20045;-81
2022/11/14 11:03:13;;;;;;;2.80;2.55;;;7.50;99.90;;;;;;5014153;28;20075;-82
2022/11/14 11:05:50;;;;;;;0.82;0.82;;;7.50;99.90;;;;;;4988158;28;20096;-83
2022/11/14 11:11:30;;;;;;;1.02;1.02;;;7.60;99.90;;;;;;5023538;28;20053;-83
2022/11/14 11:13:58;;;;;;;0.88;0.88;;;7.70;99.90;;;;;;5043358;28;20033;-81
2022/11/14 11:16:26;;;;;;;0.82;0.82;;;7.80;99.90;;;;;;5012956;28;20056;-81
2022/11/14 11:18:53;;;;;;;1.23;0.82;;;7.90;99.90;;;;;;5029540;28;20045;-79
2022/11/14 11:21:22;;;;;;;1.88;1.77;;;7.90;99.90;;;;;;5007482;28;20049;-82
2022/11/14 11:23:55;;;;;;;0.85;0.85;;;7.90;99.90;;;;;;5024263;28;20499;-82
2022/11/14 11:26:30;;;;;;;1.27;1.27;;;7.90;99.90;;;;;;5020762;28;20441;-82
2022/11/14 11:29:08;;;;;;;0.50;0.50;;;7.90;99.90;;;;;;5024996;28;20656;-81
2022/11/14 11:31:54;;;;;;;0.50;0.50;;;7.80;99.90;;;;;;5021931;28;20506;-82
2022/11/14 11:34:30;;;;;;;0.80;0.80;;;7.70;99.90;;;;;;5029181;28;20101;-81
2022/11/14 11:37:14;;;;;;;1.65;1.60;;;7.70;99.90;;;;;;4993464;28;20050;-82
2022/11/14 11:39:44;;;;;;;0.60;0.60;;;7.60;99.90;;;;;;5022234;28;20045;-82
2022/11/14 11:42:15;;;;;;;0.50;0.50;;;7.70;99.90;;;;;;5023926;28;20045;-81
2022/11/14 11:44:50;;;;;;;2.97;2.67;;;7.60;99.90;;;;;;5022555;28;20033;-82
2022/11/14 11:47:18;;;;;;;0.40;0.40;;;7.70;99.90;;;;;;5021125;28;20030;-82
2022/11/14 11:49:49;;;;;;;1.58;1.48;;;7.80;99.90;;;;;;5007507;28;20050;-83
2022/11/14 11:53:04;;;;;;;0.93;0.88;;;7.80;99.90;;;;;;5021948;28;20543;-82
2022/11/14 11:55:40;;;;;;;0.77;0.77;;;7.90;99.90;;;;;;5028983;28;20084;-81
2022/11/14 11:58:18;;;;;;;1.02;1.02;;;8.10;99.90;;;;;;5022921;28;20050;-82
2022/11/14 12:00:44;;;;;;;1.00;1.00;;;8.20;99.90;;;;;;5019476;28;20069;-82
2022/11/14 12:03:14;;;;;;;0.70;0.70;;;8.10;99.90;;;;;;4993611;28;20045;-82
2022/11/14 12:06:04;;;;;;;1.48;1.17;;;8.70;99.90;;;;;;5035098;28;20086;-82
2022/11/14 12:08:52;;;;;;;0.50;0.50;;;8.90;99.90;;;;;;5019836;28;20072;-83
2022/11/14 12:11:20;;;;;;;0.50;0.50;;;9.10;99.90;;;;;;5019397;28;20041;-83
2022/11/14 12:14:03;;;;;;;0.52;0.52;;;9.30;99.90;;;;;;5006541;28;20041;-82
2022/11/14 12:17:06;;;;;;;1.00;0.95;;;9.50;99.90;;;;;;5023981;28;20131;-82
2022/11/14 12:19:41;;;;;;;1.52;0.80;;;9.60;99.90;;;;;;5021228;28;20422;-82
2022/11/14 12:22:28;;;;;;;0.75;0.73;;;9.50;99.90;;;;;;5021832;28;20049;-82
2022/11/14 12:25:16;;;;;;;1.95;1.05;;;9.30;99.90;;;;;;5043039;28;20052;-82
2022/11/14 12:27:57;;;;;;;0.90;0.90;;;9.20;99.90;;;;;;5025849;28;20383;-83
2022/11/14 12:30:25;;;;;;;0.75;0.75;;;9.10;99.90;;;;;;5043196;28;20052;-83
2022/11/14 12:33:22;;;;;;;2.03;1.92;;;9.00;99.90;;;;;;5010208;28;20042;-82
2022/11/14 12:35:52;;;;;;;1.27;1.08;;;8.80;99.90;;;;;;5026872;28;20059;-83
2022/11/14 12:38:19;;;;;;;1.40;1.00;;;8.70;99.90;;;;;;5027804;28;20045;-82
2022/11/14 12:41:00;;;;;;;0.60;0.60;;;8.70;99.90;;;;;;5011494;28;21768;-81
2022/11/14 12:43:32;;;;;;;2.30;1.25;;;8.70;99.90;;;;;;5025143;28;20110;-82
2022/11/14 12:46:00;;;;;;;0.57;0.57;;;8.70;99.90;;;;;;5021953;28;20172;-83
2022/11/14 12:48:45;;;;;;;1.33;1.23;;;8.70;99.90;;;;;;5001572;28;20046;-84
2022/11/14 12:51:23;;;;;;;0.70;0.70;;;8.90;99.90;;;;;;5005564;28;20068;-82
2022/11/14 12:53:49;;;;;;;1.73;1.63;;;9.00;99.90;;;;;;5022779;28;20140;-82
2022/11/14 12:56:30;;;;;;;0.43;0.43;;;9.00;99.90;;;;;;5019289;28;20049;-81
2022/11/14 12:59:14;;;;;;;0.50;0.50;;;9.10;99.90;;;;;;5027806;28;20478;-82
2022/11/14 13:01:49;;;;;;;0.60;0.60;;;9.10;99.90;;;;;;5026250;28;20057;-82
2022/11/14 13:04:42;;;;;;;0.95;0.95;;;9.10;99.90;;;;;;5022300;28;20133;-82
2022/11/14 13:07:11;;;;;;;0.73;0.73;;;9.10;99.90;;;;;;5022386;28;20132;-81
2022/11/14 13:09:55;;;;;;;1.27;1.27;;;9.10;99.90;;;;;;5020799;28;21000;-84
2022/11/14 13:24:00;;;;;;;0.45;0.45;;;9.10;99.90;;;;;;5021259;28;19921;-82
2022/11/14 13:26:36;;;;;;;0.88;0.77;;;9.10;99.90;;;;;;5005129;28;20048;-81
2022/11/14 13:29:47;;;;;;;0.80;0.80;;;8.90;99.90;;;;;;5022397;28;20072;-82